6A2

Griffin-Spalding County Airport

Griffin, Georgia, USA
METAR K6A2 241955Z AUTO 13005KT 10SM SCT042 BKN090 30/20 A3008 RMK AO2
Observed Flight Rules
Sep-24 @ 19:55 UTC (17 minutes ago) Visual Flight Rules
Wind Visibility Clouds
130° at 5 knots 10 miles
  • Scattered at 4,200' AGL
  • Broken at 9,000' AGL
Temperatures Readings
Current 30°C / 86°F
Dewpoint 20°C / 68°F
Humidity 55%
Altimeter 30.08" Hg
Pressure 1019 hPa
Elevation 292
METAR K6A2 241955Z AUTO 13005KT 10SM SCT042 BKN090 30/20 A3008 RMK AO2
Observed Flight Rules
Sep-24 @ 19:55 UTC
(17 minutes ago)
VFR
Wind Visibility
130° at 5 knots 10 miles
Clouds
  • Scattered at 4,200' AGL
  • Broken at 9,000' AGL
Temperature Dewpoint
30°C / 86°F 20°C / 68°F
Humidity Altimeter Pressure
55% 30.08" Hg 1019 hPa